Latest Weather Observations for Temora

IDN60801

Issued at 4:32 pm EDT Sunday 26 February 2017 (issued every 30 minutes, with the page automatically refreshed every 10 minutes)

About weather observations | Map of weather stations | Latest weather observations for NSW | Other Formats
Station Details ID: 073151 Name: TEMORA AIRPORT Lat: -34.43 Lon: 147.51 Height: 280.5 m
Data from the previous 72 hours. | See also: Recent months at Temora
Date/Time
EDT
Temp
°C
App
Temp
°C
Dew
Point
°C
Rel
Hum
%
Delta-T
°C
Wind Press
QNH
hPa
Press
MSL
hPa
Rain since
9am
mm
Dir  Spd
km/h
Gust
km/h
Spd
kts
Gust
kts
26/04:30pm 29.4 25.0 9.0 28 11.4 ESE 22 35 12 19 1018.2 1016.8 0.0
26/04:00pm 30.0 25.9 10.0 29 11.4 ESE 22 43 12 23 1018.3 1016.9 0.0
26/03:30pm 30.2 27.1 10.2 29 11.5 E 17 28 9 15 1018.6 1017.1 0.0
26/03:00pm 29.3 25.3 10.4 31 10.8 ESE 22 32 12 17 1019.1 1017.7 0.0
26/02:30pm 28.9 25.4 11.0 33 10.4 ENE 20 35 11 19 1019.4 1018.0 0.0
26/02:00pm 28.5 24.6 10.7 33 10.2 E 22 33 12 18 1019.9 1018.5 0.0
26/01:30pm 27.7 23.7 10.4 34 9.9 NE 22 33 12 18 1020.3 1018.9 0.0
26/01:00pm 27.4 22.8 11.0 36 9.4 E 26 41 14 22 1020.6 1019.2 0.0
26/12:30pm 26.2 21.2 10.8 38 8.8 E 28 39 15 21 1020.9 1019.5 0.0
26/12:00pm 25.7 20.7 11.1 40 8.3 E 28 37 15 20 1021.4 1020.0 0.0
26/11:30am 25.3 20.5 11.8 43 7.8 E 28 43 15 23 1021.5 1020.1 0.0
26/11:01am 24.3 18.4 11.3 44 7.4 E 33 52 18 28 1021.6 1020.2 0.0
26/11:00am 24.4 18.6 11.4 44 7.4 E 33 48 18 26 1021.6 1020.2 0.0
26/10:43am 23.7 18.1 11.4 46 7.0 E 32 50 17 27 1021.6 1020.2 0.0
26/10:30am 23.1 16.9 11.5 48 6.6 E 35 48 19 26 1021.6 1020.2 0.0
26/10:02am 22.6 17.1 11.7 50 6.2 E 32 50 17 27 1021.7 1020.3 0.0
26/10:00am 22.8 17.0 11.5 49 6.4 E 33 50 18 27 1021.7 1020.3 0.0
26/09:46am 21.6 15.4 11.3 52 5.8 E 35 54 19 29 1021.6 1020.2 0.0
26/09:30am 21.7 15.0 11.1 51 5.9 E 37 50 20 27 1021.6 1020.2 0.0
26/09:20am 21.1 15.4 11.2 53 5.5 E 32 50 17 27 1021.5 1020.1 0.0
26/09:00am 20.4 14.1 11.1 55 5.2 E 35 48 19 26 1021.3 1019.9 0.0
26/08:33am 19.5 12.9 11.3 59 4.6 E 37 57 20 31 1021.0 1019.6 0.0
26/08:30am 19.5 12.9 11.3 59 4.6 E 37 54 20 29 1021.1 1019.7 0.0
26/08:19am 19.3 14.0 11.1 59 4.5 E 30 52 16 28 1021.1 1019.7 0.0
26/08:00am 19.0 14.2 11.6 62 4.1 E 28 41 15 22 1021.0 1019.6 0.0
26/07:30am 18.0 13.9 11.6 66 3.5 E 24 37 13 20 1020.8 1019.4 0.0
26/07:00am 17.5 14.2 11.5 68 3.3 E 20 30 11 16 1020.7 1019.3 0.0
26/06:30am 17.6 13.5 11.6 68 3.3 E 24 35 13 19 1020.2 1018.8 0.0
26/06:00am 17.8 14.3 12.3 70 3.1 E 22 35 12 19 1019.6 1018.2 0.0
26/05:30am 17.8 14.7 12.3 70 3.1 E 20 32 11 17 1019.3 1017.9 0.0
26/05:00am 18.4 14.3 12.8 70 3.2 E 26 37 14 20 1018.9 1017.4 0.0
26/04:30am 18.4 14.0 12.8 70 3.2 E 28 37 15 20 1019.0 1017.6 0.0
26/04:00am 18.3 14.2 12.7 70 3.2 E 26 39 14 21 1018.7 1017.2 0.0
26/03:30am 18.6 14.1 12.6 68 3.4 ENE 28 37 15 20 1018.9 1017.4 0.0
26/03:00am 18.8 15.4 12.5 67 3.6 ENE 22 32 12 17 1019.0 1017.6 0.0
26/02:30am 19.0 15.2 12.3 65 3.8 E 24 33 13 18 1019.3 1017.9 0.0
26/02:00am 19.1 15.3 12.4 65 3.8 E 24 39 13 21 1019.5 1018.1 0.0
26/01:30am 19.0 15.9 12.3 65 3.8 E 20 33 11 18 1019.6 1018.2 0.0
26/01:00am 19.2 16.1 12.2 64 3.9 E 20 33 11 18 1019.4 1018.0 0.0
26/12:30am 19.4 15.5 12.2 63 4.1 E 24 35 13 19 1019.3 1017.9 0.0
26/12:00am 19.6 15.6 11.9 61 4.3 E 24 35 13 19 1019.2 1017.8 0.0
 
Date/Time
EDT
Temp
°C
App
Temp
°C
Dew
Point
°C
Rel
Hum
%
Delta-T
°C
Wind Press
QNH
hPa
Press
MSL
hPa
Rain since
9am
mm
Dir  Spd
km/h
Gust
km/h
Spd
kts
Gust
kts
25/11:30pm 20.1 15.2 11.3 57 4.9 E 28 39 15 21 1019.0 1017.6 0.0
25/11:00pm 20.7 15.7 11.1 54 5.3 E 28 41 15 22 1019.1 1017.7 0.0
25/10:38pm 21.0 16.0 11.1 53 5.5 E 28 46 15 25 1019.0 1017.6 0.0
25/10:30pm 21.1 16.5 11.2 53 5.5 E 26 43 14 23 1019.0 1017.6 0.0
25/10:00pm 21.8 16.9 11.2 51 5.9 E 28 39 15 21 1018.7 1017.2 0.0
25/09:30pm 22.7 17.8 11.4 49 6.4 E 28 43 15 23 1018.1 1016.7 0.0
25/09:07pm 23.3 18.0 11.4 47 6.8 E 30 50 16 27 1017.7 1016.3 0.0
25/09:00pm 23.5 18.2 11.2 46 7.0 E 30 41 16 22 1017.6 1016.2 0.0
25/08:30pm 24.4 19.0 11.0 43 7.6 E 30 44 16 24 1017.1 1015.7 0.0
25/08:00pm 25.0 20.6 10.5 40 8.2 E 24 35 13 19 1016.6 1015.2 0.0
25/07:30pm 26.1 20.9 10.3 37 8.9 ESE 28 39 15 21 1016.2 1014.8 0.0
25/07:00pm 27.4 22.3 10.6 35 9.6 ESE 28 39 15 21 1015.7 1014.2 0.0
25/06:30pm 28.7 24.0 10.8 33 10.3 ESE 26 37 14 20 1015.6 1014.1 0.0
25/06:00pm 29.6 24.9 10.7 31 10.9 ESE 26 32 14 17 1015.3 1013.8 0.0
25/05:30pm 29.8 25.5 10.9 31 11.0 ESE 24 32 13 17 1015.2 1013.7 0.0
25/05:00pm 30.7 27.4 11.6 31 11.2 ESE 20 37 11 20 1015.5 1014.0 0.0
25/04:30pm 30.7 27.0 11.6 31 11.2 ESE 22 35 12 19 1015.6 1014.1 0.0
25/04:00pm 30.9 27.7 11.8 31 11.3 ESE 20 28 11 15 1015.8 1014.4 0.0
25/03:30pm 29.7 27.2 11.2 31 10.8 SE 15 20 8 11 1015.9 1014.5 0.0
25/03:00pm 30.7 27.5 10.1 28 11.8 SE 17 24 9 13 1016.3 1014.9 0.0
25/02:30pm 31.0 28.8 10.9 29 11.7 ENE 13 22 7 12 1016.8 1015.4 0.0
25/02:00pm 30.1 28.1 11.6 32 10.8 NNW 13 20 7 11 1017.2 1015.8 0.0
25/01:30pm 30.1 27.8 11.6 32 10.9 SE 15 26 8 14 1017.5 1016.1 0.0
25/01:00pm 29.0 27.9 12.0 35 10.0 NE 9 22 5 12 1017.8 1016.4 0.0
25/12:30pm 27.8 25.8 12.6 39 9.0 NNE 15 24 8 13 1018.1 1016.7 0.0
25/12:00pm 27.9 25.4 13.4 40 8.7 NE 19 30 10 16 1018.4 1017.0 0.0
25/11:30am 27.4 25.5 14.1 44 8.0 NNE 17 32 9 17 1018.9 1017.4 0.0
25/11:00am 26.1 23.6 14.2 48 7.1 ENE 20 33 11 18 1019.1 1017.7 0.0
25/10:30am 24.6 21.5 14.4 53 6.1 E 24 32 13 17 1019.4 1018.0 0.0
25/10:00am 23.6 20.7 14.0 55 5.7 ENE 22 30 12 16 1019.6 1018.2 0.0
25/09:30am 22.9 19.7 14.2 58 5.2 E 24 35 13 19 1019.4 1018.0 0.0
25/09:00am 22.2 19.0 14.3 61 4.7 ENE 24 33 13 18 1019.4 1018.0 0.0
25/08:30am 20.6 17.3 14.0 66 3.9 E 24 32 13 17 1019.3 1017.9 0.0
25/08:00am 19.8 17.9 14.2 70 3.3 E 17 24 9 13 1019.0 1017.6 0.0
25/07:30am 18.7 16.8 14.2 75 2.6 E 17 24 9 13 1018.7 1017.2 0.0
25/07:00am 18.1 17.0 14.2 78 2.3 E 13 17 7 9 1018.7 1017.2 0.0
25/06:30am 18.0 16.8 14.1 78 2.3 ESE 13 19 7 10 1018.3 1016.9 0.0
25/06:00am 18.1 17.0 14.4 79 2.2 E 13 17 7 9 1018.2 1016.8 0.0
25/05:30am 17.9 17.5 14.2 79 2.1 ESE 9 15 5 8 1018.1 1016.7 0.0
25/05:00am 17.9 17.9 14.2 79 2.1 SE 7 9 4 5 1018.0 1016.6 0.0
25/04:30am 17.9 17.5 14.0 78 2.3 SE 9 11 5 6 1017.9 1016.5 0.0
25/04:00am 18.1 17.7 14.2 78 2.3 SSE 9 13 5 7 1017.9 1016.5 0.0
25/03:30am 18.2 17.8 14.1 77 2.4 SE 9 13 5 7 1018.0 1016.6 0.0
25/03:00am 18.8 18.1 14.3 75 2.6 SE 11 15 6 8 1018.1 1016.7 0.0
25/02:30am 19.2 18.6 14.5 74 2.8 SE 11 15 6 8 1018.2 1016.8 0.0
25/02:00am 18.6 17.5 13.2 71 3.1 SE 11 13 6 7 1018.6 1017.1 0.0
25/01:30am 16.6 13.6 4.0 43 6.0 S 9 11 5 6 1019.0 1017.6 0.0
25/01:00am 18.2 15.0 2.9 36 7.1 S 9 11 5 6 1019.3 1017.9 0.0
25/12:30am 20.2 16.3 3.4 33 8.1 S 13 19 7 10 1019.3 1017.9 0.0
25/12:00am 21.2 16.5 3.4 31 8.6 SE 17 22 9 12 1019.4 1018.0 0.0
 
Date/Time
EDT
Temp
°C
App
Temp
°C
Dew
Point
°C
Rel
Hum
%
Delta-T
°C
Wind Press
QNH
hPa
Press
MSL
hPa
Rain since
9am
mm
Dir  Spd
km/h
Gust
km/h
Spd
kts
Gust
kts
24/11:30pm 21.7 17.3 2.9 29 9.0 SSW 15 20 8 11 1018.8 1017.3 0.0
24/11:00pm 22.8 18.0 2.8 27 9.7 SSW 17 22 9 12 1018.7 1017.2 0.0
24/10:30pm 23.4 18.9 2.3 25 10.2 SSW 15 22 8 12 1018.8 1017.3 0.0
24/10:00pm 23.9 19.7 1.5 23 10.6 SW 13 20 7 11 1018.8 1017.3 0.0
24/09:30pm 24.6 20.4 1.5 22 11.0 SSW 13 20 7 11 1018.7 1017.2 0.0
24/09:00pm 25.1 21.0 -0.1 19 11.7 SW 11 17 6 9 1018.2 1016.8 0.0
24/08:30pm 26.6 22.5 -0.4 17 12.7 SW 11 17 6 9 1017.7 1016.3 0.0
24/08:00pm 27.9 23.4 -0.2 16 13.3 SW 13 19 7 10 1017.4 1016.0 0.0
24/07:30pm 29.9 24.6 -0.5 14 14.6 SW 17 26 9 14 1017.3 1015.9 0.0
24/07:00pm 31.2 25.5 -0.5 13 15.3 SW 19 32 10 17 1017.1 1015.7 0.0
24/06:30pm 32.3 26.6 -0.7 12 16.0 SW 19 26 10 14 1016.9 1015.5 0.0
24/06:00pm 32.8 26.8 0.8 13 16.0 SW 22 30 12 16 1016.8 1015.4 0.0
24/05:30pm 33.4 27.6 0.1 12 16.5 SSW 20 30 11 16 1016.7 1015.3 0.0
24/05:00pm 33.5 27.4 0.2 12 16.5 SSW 22 33 12 18 1016.7 1015.3 0.0
24/04:30pm 33.7 27.4 1.5 13 16.4 SSW 24 37 13 20 1016.9 1015.5 0.0
24/04:00pm 33.6 28.4 2.4 14 16.1 SSW 19 28 10 15 1017.0 1015.6 0.0
24/03:30pm 33.8 28.6 3.6 15 15.9 SW 20 39 11 21 1017.3 1015.9 0.0
24/03:00pm 33.4 27.8 3.3 15 15.7 SSW 22 32 12 17 1017.7 1016.3 0.0
24/02:30pm 33.1 27.8 3.0 15 15.6 S 20 37 11 20 1018.1 1016.7 0.0
24/02:00pm 32.4 26.9 4.2 17 14.8 SSW 22 33 12 18 1018.6 1017.1 0.0
24/01:30pm 32.9 27.3 0.9 13 16.0 WSW 20 32 11 17 1018.9 1017.4 0.0
24/01:00pm 32.1 26.7 2.2 15 15.2 SW 20 30 11 16 1019.2 1017.8 0.0
24/12:30pm 31.7 27.3 4.5 18 14.3 SW 17 26 9 14 1019.6 1018.2 0.0
24/12:00pm 30.4 26.3 6.3 22 13.0 SW 17 26 9 14 1020.0 1018.6 0.0
24/11:30am 30.3 25.9 7.5 24 12.5 SW 20 28 11 15 1020.3 1018.9 0.0
24/11:00am 29.1 24.8 7.1 25 11.9 SSW 19 24 10 13 1020.4 1019.0 0.0
24/10:30am 28.5 24.2 7.7 27 11.4 SSW 20 26 11 14 1020.6 1019.2 0.0
24/10:00am 27.9 24.4 8.7 30 10.6 SSW 17 26 9 14 1020.5 1019.1 0.0
24/09:30am 27.0 24.2 8.4 31 10.2 S 13 24 7 13 1020.4 1019.0 0.0
24/09:00am 24.9 22.7 8.0 34 9.1 SSW 9 13 5 7 1020.4 1019.0 0.0
24/08:30am 22.4 20.2 7.8 39 7.7 SSW 9 11 5 6 1020.1 1018.7 0.0
24/08:00am 20.0 18.5 8.4 47 6.1 SSW 6 7 3 4 1019.9 1018.5 0.0
24/07:30am 16.5 15.4 6.9 53 4.8 SSW 2 6 1 3 1019.6 1018.2 0.0
24/07:00am 16.6 14.6 7.0 53 4.8 S 7 9 4 5 1019.2 1017.8 0.0
24/06:30am 15.1 12.9 6.4 56 4.3 SSW 7 9 4 5 1018.9 1017.4 0.0
24/06:00am 14.9 12.7 6.2 56 4.2 SSW 7 9 4 5 1018.6 1017.1 0.0
24/05:30am 16.0 13.5 6.7 54 4.6 SSW 9 15 5 8 1018.1 1016.7 0.0
24/05:00am 15.1 12.9 6.4 56 4.3 SSW 7 9 4 5 1018.1 1016.7 0.0
24/04:30am 15.1 12.8 5.9 54 4.5 SW 7 9 4 5 1017.9 1016.5 0.0
24/04:00am 17.0 15.1 6.5 50 5.2 SSW 6 7 3 4 1018.1 1016.7 0.0
24/03:30am 18.3 16.0 5.8 44 6.2 S 7 9 4 5 1018.0 1016.6 0.0
24/03:00am 19.8 17.6 6.2 41 6.9 S 7 9 4 5 1018.0 1016.6 0.0
24/02:30am 19.7 17.1 6.1 41 6.9 SSW 9 13 5 7 1018.0 1016.6 0.0
24/02:00am 19.6 16.9 5.6 40 7.0 SSW 9 15 5 8 1018.1 1016.7 0.0
24/01:30am 20.5 17.6 4.9 36 7.7 SSW 9 11 5 6 1018.2 1016.8 0.0
24/01:00am 21.7 18.9 5.2 34 8.3 SSW 9 11 5 6 1018.3 1016.9 0.0
24/12:30am 22.2 18.9 4.7 32 8.7 S 11 13 6 7 1018.3 1016.9 0.0
24/12:00am 21.8 18.9 4.4 32 8.6 SSW 9 13 5 7 1018.1 1016.7 0.0
 
Date/Time
EDT
Temp
°C
App
Temp
°C
Dew
Point
°C
Rel
Hum
%
Delta-T
°C
Wind Press
QNH
hPa
Press
MSL
hPa
Rain since
9am
mm
Dir  Spd
km/h
Gust
km/h
Spd
kts
Gust
kts
23/11:30pm 22.4 19.8 4.0 30 9.1 SSW 7 11 4 6 1018.0 1016.6 0.0
23/11:00pm 24.8 21.5 4.5 27 10.3 S 11 13 6 7 1018.0 1016.6 0.0
23/10:30pm 25.8 22.8 4.3 25 10.9 SSW 9 13 5 7 1018.0 1016.6 0.0
23/10:00pm 26.1 23.5 4.0 24 11.2 SW 7 9 4 5 1018.0 1016.6 0.0
23/09:30pm 27.4 24.7 3.8 22 12.0 SW 7 9 4 5 1017.7 1016.3 0.0
23/09:00pm 28.4 25.2 3.3 20 12.7 SW 9 13 5 7 1017.4 1016.0 0.0
23/08:30pm 29.5 26.2 2.7 18 13.5 SW 9 13 5 7 1017.1 1015.7 0.0
23/08:00pm 30.7 27.1 2.9 17 14.2 SW 11 17 6 9 1016.8 1015.4 0.0
23/07:30pm 33.4 28.2 0.1 12 16.5 WSW 17 24 9 13 1016.4 1015.0 0.0
23/07:00pm 34.9 29.1 0.1 11 17.4 WSW 20 32 11 17 1016.2 1014.8 0.0
23/06:30pm 35.9 30.6 -0.5 10 18.2 WSW 17 30 9 16 1016.0 1014.6 0.0
23/06:00pm 36.5 30.7 0.0 10 18.4 WSW 20 32 11 17 1015.9 1014.5 0.0
23/05:30pm 37.4 31.3 -2.4 8 19.5 W 20 30 11 16 1015.8 1014.4 0.0
23/05:00pm 37.2 31.5 -0.9 9 19.0 WSW 19 32 10 17 1015.8 1014.4 0.0

Other Formats:

Comma delimited format used in spreadsheet applications
http://www.bom.gov.au/fwo/IDN60801/IDN60801.95722.axf

JavaScript Object Notation format (JSON) in row-major order
http://www.bom.gov.au/fwo/IDN60801/IDN60801.95722.json